Greyabbey, United Kingdom
Current Conditions -  °F | °C
As of 9:50 AM on Saturday 29 Nov 2014 (Local Time) from EGAC Reporting Station
Light Rain Light Rain  
Wind Chill: 50°   Ceiling: 1600
Heat Index: 50°   Visibility: 4mi
Dew Point: 48°   Wind: 6mph
Humidity: 94%   Direction: 110°ESE
Pressure: 29.8"   Gusts: NA
Location:  54.53°N, 5.57°W
Report Text: EGAC 290950Z 11005KT 090V160 7000 -RADZ FEW007 SCT011 BKN016 10/09 Q1009
Loading
Personal Weather Stations






























Interactive Weather Map New forecast layout! Learn more

10-Day Weather Forecast

Advertisements
Track Severe Weather on mobile